A- A+ FrançaisEnglishEspañol中国

Services sur Internet Soldes sur Internet Des idées de cadeaux Météo Météo aéro

La météo à : Autours de vous Tarbes-Lourdes-PyrénéesMontargis-VimoryLe-Mans-Arnage Montpellier-Frejorgues

manche à air

La météo aéronautique pour les pilotes, la préparation du vol avec les METAR (METeorological Aerodrome Report, message d'observation des conditions météorologiques pour l'aviation) et Les TAF (Terminal Aerodrome Forecast : message de prévision à court terme des conditions météorologiques pour l'aviation). Et les autres ressources comme les VAC (Visual Approch Chart) et les NOTAM (Notice To Airman) pour préprer les vols.

Aéroport Jerba Zarsis (Tunisie) / OACI DTTJ/ IATA DJE

L'altitude de l'aéroport Jerba Zarsis est de 6 m = 20 ft. Il est situé à proximité de Djerba (Tunisie). La météo générale à 5 jours est disponible pour Mārith situé à 53.6 km.

METAR de l'aéroport Jerba Zarsis - DTTJ

DTTJ 110300Z 31021G35KT 9999 FEW023 14/05 Q1013 NOSIG

Décodage du METAR de l'aéroport Jerba Zarsis (TN)

METAR émis par DTTJ le mercredi 11 décembre 2019 à 03:00 heure TU. Attention ce METAR est obsolète car il a été émis il y a 49 minutes.

La visibilité est de supérieure à 10 km = supérieure à 6.2 sm.

La température est de 14°C = 57 °F et le point rosée est de 5°C = 41 °F . Ce qui correspond à 55% d'humidité relative.

Le QNH est de 1013 hPa = 29.91 inHg

Vent de 21 kt = 39 km/h avec des rafales à 35 kt = 65 km/h, orienté à 310°.

Nuages : Quelques nuages à 2300 ft = 700 mètres.

Aucun changement significatif dans les deux heures à venir

TAF de l'aéroport Jerba Zarsis - DTTJ

DTTJ 102300Z 1100/1124 32020KT 9999 FEW023

DTTJ 102300Z 1100/1124 32020KT 9999 quelques nuages à 023

Aéroport à proximité de Jerba Zarsis

Météo générale à 5 jours à Mārith (53.6 km)Aéroport Gabes (62 km)Aéroport Sfax Thyna (94 km)Aéroport Remada (178 km)Aéroport Gafsa (190 km)Aéroport Monastir Habib Bourgiba (209 km)Aéroport Tozeur Nefta (246 km)

Vue aérienne de l'aéroport Jerba Zarsis

NOTAM de l'aéroport Jerba Zarsis

Les NOTAM sont fournis sans aucune garantie de leur actualité. Le pilote est le seul responsable de la vérification de sa validité avant de l'utiliser opérationnellement pour préparer un vol ou l'utiliser lors de sa navigation.

Pas de NOTAM

Sources des données